createdAt,value
2023-03-06T05:03:51.597Z,87.20
2023-03-06T05:08:03.077Z,87.06
2023-03-06T05:12:14.534Z,87.50
2023-03-06T05:16:26.211Z,87.27
2023-03-06T05:20:37.711Z,87.76
2023-03-06T05:24:49.158Z,87.29
2023-03-06T05:29:00.674Z,87.80
2023-03-06T05:33:12.095Z,87.84
2023-03-06T05:37:23.776Z,87.38
2023-03-06T05:41:35.908Z,87.96
2023-03-06T05:45:47.485Z,87.77
2023-03-06T05:49:58.995Z,87.95
2023-03-06T05:54:10.427Z,88.29
2023-03-06T05:58:21.897Z,88.26
2023-03-06T06:02:33.357Z,87.95
2023-03-06T06:06:44.825Z,88.23
2023-03-06T06:10:56.232Z,87.66
2023-03-06T06:15:07.995Z,88.24
2023-03-06T06:19:20.254Z,88.38
2023-03-06T06:23:31.778Z,88.43
2023-03-06T06:27:43.247Z,88.59
2023-03-06T06:31:54.881Z,88.61
2023-03-06T06:36:15.572Z,89.22
2023-03-06T06:40:27.592Z,88.69
2023-03-06T06:44:39.610Z,88.68
2023-03-06T06:48:54.892Z,88.67
2023-03-06T06:53:06.347Z,88.68
2023-03-06T06:57:18.349Z,88.46
2023-03-06T07:01:29.962Z,88.59
2023-03-06T07:05:41.835Z,88.87
2023-03-06T07:09:53.279Z,88.68
2023-03-06T07:14:04.900Z,89.65
2023-03-06T07:18:16.368Z,87.98
2023-03-06T07:22:30.336Z,87.83
2023-03-06T07:26:47.734Z,88.36
2023-03-06T07:30:59.245Z,88.55
2023-03-06T07:35:20.050Z,88.15
2023-03-06T07:39:31.705Z,88.65
2023-03-06T07:43:44.903Z,88.90
2023-03-06T07:47:56.942Z,88.83
2023-03-06T07:52:08.457Z,88.53
2023-03-06T07:56:19.961Z,88.47
2023-03-06T08:00:31.452Z,88.20
2023-03-06T08:04:42.876Z,88.68
2023-03-06T08:08:55.654Z,88.31
2023-03-06T08:13:07.117Z,87.43
2023-03-06T08:17:18.667Z,87.34
2023-03-06T08:21:30.213Z,87.14
2023-03-06T08:25:41.654Z,87.98
2023-03-06T08:29:53.109Z,87.16
2023-03-06T08:34:07.841Z,87.24
2023-03-06T08:38:20.364Z,88.01
2023-03-06T08:42:32.599Z,88.92
2023-03-06T08:46:44.074Z,88.84
2023-03-06T08:50:55.910Z,89.36
2023-03-06T08:55:07.963Z,89.25
2023-03-06T08:59:19.553Z,89.21
2023-03-06T09:03:31.122Z,89.65
2023-03-06T09:07:42.633Z,89.57
2023-03-06T09:11:55.120Z,89.96
2023-03-06T09:16:07.508Z,90.42
2023-03-06T09:20:19.206Z,91.58
2023-03-06T09:24:30.808Z,92.17
2023-03-06T09:28:45.116Z,91.13
2023-03-06T09:32:56.762Z,91.36
2023-03-06T09:37:08.331Z,93.16
2023-03-06T09:41:28.971Z,93.15
2023-03-06T09:45:40.556Z,92.99
2023-03-06T09:50:41.605Z,93.09
2023-03-06T09:55:08.886Z,94.10
2023-03-06T09:59:23.833Z,95.78
2023-03-06T10:03:44.889Z,96.16
2023-03-06T10:08:03.472Z,96.35
2023-03-06T10:12:24.768Z,96.51
2023-03-06T10:16:36.445Z,96.92
2023-03-06T10:21:18.870Z,97.69
2023-03-06T10:25:42.746Z,96.96
2023-03-06T10:30:14.521Z,98.10
2023-03-06T10:34:32.618Z,98.08
2023-03-06T10:38:45.157Z,97.57
2023-03-06T10:43:10.890Z,97.88
2023-03-06T10:47:31.601Z,98.00
2023-03-06T10:51:57.936Z,98.77
2023-03-06T10:56:09.780Z,99.35
2023-03-06T11:00:31.388Z,99.27
2023-03-06T11:04:47.021Z,99.62
2023-03-06T11:09:24.750Z,99.32
2023-03-06T11:13:38.941Z,99.46
2023-03-06T11:18:00.912Z,99.51
2023-03-06T11:22:19.108Z,100.00
2023-03-06T11:26:33.883Z,100.00
2023-03-06T11:31:11.702Z,99.73
2023-03-06T11:35:47.086Z,100.00
2023-03-06T11:40:17.493Z,100.00
2023-03-06T11:44:51.655Z,99.92
2023-03-06T11:49:22.639Z,100.00
2023-03-06T11:53:37.915Z,99.58
2023-03-06T11:57:55.654Z,99.87
2023-03-06T12:02:28.458Z,99.75
2023-03-06T12:07:01.013Z,100.00
2023-03-06T12:11:20.296Z,97.99
2023-03-06T12:16:09.837Z,99.41
2023-03-06T12:20:50.641Z,100.00
2023-03-06T12:25:34.082Z,98.71
2023-03-06T12:29:59.306Z,99.49
2023-03-06T12:34:35.550Z,100.00
2023-03-06T12:39:09.663Z,100.00
2023-03-06T12:44:05.754Z,100.00
2023-03-06T12:48:24.186Z,98.70
2023-03-06T12:52:36.099Z,99.47
2023-03-06T12:56:48.957Z,100.00
2023-03-06T13:01:13.907Z,100.00
2023-03-06T13:05:54.622Z,100.00
2023-03-06T13:10:25.877Z,100.00
2023-03-06T13:14:37.557Z,100.00
2023-03-06T13:19:12.011Z,100.00
2023-03-06T13:23:29.534Z,100.00
2023-03-06T13:27:45.117Z,99.69
2023-03-06T13:32:02.625Z,99.76
2023-03-06T13:36:22.329Z,99.97
2023-03-06T13:40:35.330Z,100.00
2023-03-06T13:44:49.562Z,100.00
2023-03-06T13:49:13.120Z,100.00
2023-03-06T13:54:05.335Z,100.00
2023-03-06T13:58:42.886Z,100.00
2023-03-06T14:03:21.883Z,98.65
2023-03-06T14:07:40.045Z,99.06
2023-03-06T14:11:59.664Z,93.07
2023-03-06T14:16:19.143Z,92.15
2023-03-06T14:20:33.644Z,93.38
2023-03-06T14:24:56.674Z,92.19
2023-03-06T14:29:20.675Z,93.38
2023-03-06T14:33:52.557Z,94.23
2023-03-06T14:38:08.493Z,95.34
2023-03-06T14:42:25.309Z,95.24
2023-03-06T14:46:36.831Z,94.23
2023-03-06T14:50:58.145Z,94.06
2023-03-06T14:55:19.272Z,94.39
2023-03-06T14:59:42.180Z,94.87
2023-03-06T15:03:57.877Z,93.54
2023-03-06T15:08:09.539Z,93.97
2023-03-06T15:12:21.135Z,92.80
2023-03-06T15:16:32.612Z,91.72
2023-03-06T15:20:53.921Z,92.22
2023-03-06T15:25:20.038Z,92.25
2023-03-06T15:29:31.841Z,91.92
2023-03-06T15:33:43.700Z,91.37
2023-03-06T15:37:56.050Z,92.61
2023-03-06T15:42:23.430Z,91.49
2023-03-06T15:46:34.891Z,91.58
2023-03-06T15:50:46.449Z,90.54
2023-03-06T15:54:57.975Z,91.05
2023-03-06T15:59:21.675Z,91.25
2023-03-06T16:03:33.211Z,88.10
2023-03-06T16:07:44.869Z,87.17
2023-03-06T16:11:56.378Z,86.16
2023-03-06T16:16:22.459Z,86.17
2023-03-06T16:20:33.935Z,86.46
2023-03-06T16:24:45.370Z,86.05
2023-03-06T16:28:57.172Z,85.99
2023-03-06T16:33:13.407Z,86.39
2023-03-06T16:37:24.898Z,86.96
2023-03-06T16:41:36.423Z,86.62
2023-03-06T16:45:47.997Z,88.06
2023-03-06T16:50:02.219Z,86.28
2023-03-06T16:54:13.875Z,87.08
2023-03-06T16:58:25.320Z,85.96
2023-03-06T17:02:38.317Z,87.11
2023-03-06T17:06:53.203Z,87.12
2023-03-06T17:11:07.779Z,88.38
2023-03-06T17:15:19.896Z,88.87
2023-03-06T17:19:31.360Z,89.33
2023-03-06T17:23:44.335Z,88.91
2023-03-06T17:27:55.897Z,89.31
2023-03-06T17:32:07.622Z,88.51
2023-03-06T17:36:19.437Z,89.03
2023-03-06T17:40:33.405Z,89.23
2023-03-06T17:44:44.987Z,90.07
2023-03-06T17:48:56.518Z,90.48
2023-03-06T17:53:07.987Z,90.82
2023-03-06T17:57:19.496Z,90.38
2023-03-06T18:01:31.269Z,91.99
2023-03-06T18:05:42.691Z,91.26
2023-03-06T18:09:54.331Z,91.45
2023-03-06T18:14:05.826Z,91.05
2023-03-06T18:18:17.308Z,92.39
2023-03-06T18:22:28.787Z,93.53
2023-03-06T18:26:42.344Z,93.15
2023-03-06T18:30:53.795Z,93.06
2023-03-06T18:35:05.830Z,93.97
2023-03-06T18:39:17.360Z,94.17
2023-03-06T18:43:29.095Z,94.18
2023-03-06T18:47:40.880Z,94.66
2023-03-06T18:51:52.372Z,94.74
2023-03-06T18:56:03.976Z,94.98
2023-03-06T19:00:16.639Z,94.54
2023-03-06T19:04:28.157Z,94.71
2023-03-06T19:08:40.431Z,94.89
2023-03-06T19:12:51.897Z,95.08
2023-03-06T19:17:03.438Z,95.71
2023-03-06T19:21:18.087Z,95.15
2023-03-06T19:25:29.535Z,94.70
2023-03-06T19:29:41.852Z,95.01
2023-03-06T19:33:55.764Z,94.76
2023-03-06T19:38:07.385Z,94.89
2023-03-06T19:42:18.873Z,94.51
2023-03-06T19:46:31.641Z,94.82
2023-03-06T19:50:43.358Z,94.72
2023-03-06T19:54:55.008Z,94.43
2023-03-06T19:59:06.667Z,94.25
2023-03-06T20:03:18.102Z,93.95
2023-03-06T20:07:29.552Z,94.00
2023-03-06T20:11:41.048Z,93.82
2023-03-06T20:15:52.617Z,93.17
2023-03-06T20:20:04.333Z,93.64
2023-03-06T20:24:17.951Z,93.48
2023-03-06T20:28:30.034Z,93.24
2023-03-06T20:32:41.640Z,93.35
2023-03-06T20:36:53.191Z,93.76
2023-03-06T20:41:05.038Z,93.15
2023-03-06T20:45:16.584Z,93.12
2023-03-06T20:49:28.499Z,94.19
2023-03-06T20:53:40.174Z,95.34
2023-03-06T20:57:52.534Z,95.44
2023-03-06T21:02:04.103Z,94.85
2023-03-06T21:06:16.539Z,94.59
2023-03-06T21:10:29.123Z,94.65
2023-03-06T21:14:40.659Z,94.21
2023-03-06T21:18:55.325Z,94.07
2023-03-06T21:23:07.492Z,94.20
2023-03-06T21:27:19.151Z,94.70
2023-03-06T21:31:31.047Z,95.19
2023-03-06T21:41:55.270Z,93.94
2023-03-06T21:50:51.795Z,93.83
2023-03-06T21:55:03.864Z,93.46
2023-03-06T21:59:15.447Z,93.64
2023-03-06T22:03:28.641Z,93.66
2023-03-06T22:07:40.437Z,93.74
2023-03-06T22:11:51.922Z,93.60
2023-03-06T22:16:03.896Z,93.68
2023-03-06T22:20:15.758Z,93.37
2023-03-06T22:24:27.279Z,93.12
2023-03-06T22:28:39.799Z,93.06
